createdAt,value
2023-04-23T05:36:06.630Z,3.00
2023-04-23T05:37:11.017Z,2.78
2023-04-23T05:38:12.609Z,2.72
2023-04-23T05:39:14.157Z,3.30
2023-04-23T05:40:18.321Z,3.30
2023-04-23T05:41:20.017Z,2.78
2023-04-23T05:42:21.923Z,3.15
2023-04-23T05:43:23.557Z,3.22
2023-04-23T05:44:25.271Z,3.38
2023-04-23T05:46:28.778Z,2.75
2023-04-23T05:47:49.074Z,3.25
2023-04-23T05:49:09.208Z,3.13
2023-04-23T05:50:29.578Z,3.15
2023-04-23T05:51:51.839Z,3.60
2023-04-23T05:53:14.646Z,3.22
2023-04-23T05:54:36.608Z,3.00
2023-04-23T05:55:58.730Z,3.25
2023-04-23T05:57:20.763Z,3.50
2023-04-23T05:58:42.869Z,3.70
2023-04-23T06:00:09.584Z,3.30
2023-04-23T06:01:37.010Z,3.30
2023-04-23T06:03:01.190Z,3.35
2023-04-23T06:04:23.761Z,3.80
2023-04-23T06:05:45.995Z,3.28
2023-04-23T06:07:10.618Z,3.35
2023-04-23T06:08:32.501Z,3.10
2023-04-23T06:09:54.560Z,3.42
2023-04-23T06:11:16.775Z,3.22
2023-04-23T06:12:39.903Z,3.20
2023-04-23T06:14:03.033Z,3.63
2023-04-23T06:15:27.250Z,3.47
2023-04-23T06:16:49.261Z,3.55
2023-04-23T06:18:11.289Z,3.38
2023-04-23T06:19:33.253Z,3.42
2023-04-23T06:20:56.963Z,3.20
2023-04-23T06:22:18.942Z,3.10
2023-04-23T06:23:43.556Z,3.33
2023-04-23T06:25:08.553Z,3.20
2023-04-23T06:26:32.169Z,2.97
2023-04-23T06:27:59.927Z,2.80
2023-04-23T06:29:25.479Z,3.50
2023-04-23T06:30:58.524Z,3.00
2023-04-23T06:32:21.842Z,3.17
2023-04-23T06:33:43.777Z,3.05
2023-04-23T06:35:09.394Z,3.40
2023-04-23T06:36:32.291Z,3.20
2023-04-23T06:37:54.382Z,3.35
2023-04-23T06:39:16.444Z,3.38
2023-04-23T06:40:38.533Z,3.10
2023-04-23T06:42:00.451Z,2.97
2023-04-23T06:43:43.459Z,3.30
2023-04-23T06:45:25.692Z,3.10
2023-04-23T06:46:47.842Z,2.90
2023-04-23T06:48:09.816Z,3.08
2023-04-23T06:49:31.968Z,3.00
2023-04-23T06:50:53.948Z,3.20
2023-04-23T06:52:15.932Z,3.13
2023-04-23T06:53:40.485Z,3.13
2023-04-23T06:55:02.564Z,3.60
2023-04-23T06:56:27.487Z,3.60
2023-04-23T06:57:49.503Z,3.58
2023-04-23T06:58:51.161Z,3.30
2023-04-23T06:59:55.737Z,3.03
2023-04-23T07:01:01.539Z,3.20
2023-04-23T07:02:05.476Z,3.20
2023-04-23T07:04:11.546Z,2.40
2023-04-23T07:05:13.261Z,2.42
2023-04-23T07:06:34.684Z,3.10
2023-04-23T07:07:55.290Z,3.00
2023-04-23T07:09:15.587Z,3.03
2023-04-23T07:10:37.645Z,3.10
2023-04-23T07:11:59.521Z,2.90
2023-04-23T07:13:24.029Z,2.80
2023-04-23T07:14:46.092Z,2.75
2023-04-23T07:16:08.164Z,2.95
2023-04-23T07:17:31.024Z,2.80
2023-04-23T07:18:53.407Z,2.92
2023-04-23T07:20:15.429Z,2.63
2023-04-23T07:21:40.269Z,2.83
2023-04-23T07:23:04.029Z,2.35
2023-04-23T07:24:26.794Z,2.95
2023-04-23T07:25:48.860Z,2.65
2023-04-23T07:27:11.027Z,2.90
2023-04-23T07:28:35.346Z,2.65
2023-04-23T07:29:59.624Z,2.55
2023-04-23T07:31:22.320Z,2.63
2023-04-23T07:32:44.348Z,2.90
2023-04-23T07:34:09.877Z,2.67
2023-04-23T07:35:31.841Z,2.90
2023-04-23T07:36:55.462Z,3.35
2023-04-23T07:38:17.471Z,2.47
2023-04-23T07:39:41.115Z,2.75
2023-04-23T07:41:04.620Z,2.85
2023-04-23T07:42:26.661Z,2.85
2023-04-23T07:43:48.781Z,2.80
2023-04-23T07:45:56.874Z,2.85
2023-04-23T07:46:58.509Z,2.90
2023-04-23T07:48:02.621Z,2.70
2023-04-23T07:49:04.645Z,2.78
2023-04-23T07:50:10.236Z,2.97
2023-04-23T07:51:12.508Z,2.80
2023-04-23T07:52:15.484Z,2.90
2023-04-23T07:53:17.242Z,2.63
2023-04-23T07:55:21.704Z,3.17
2023-04-23T07:56:24.561Z,2.92
2023-04-23T07:57:26.285Z,3.20
2023-04-23T07:59:29.750Z,2.92
2023-04-23T08:00:34.433Z,2.78
2023-04-23T08:02:38.082Z,2.72
2023-04-23T08:03:39.990Z,3.78
2023-04-23T08:04:42.031Z,3.08
2023-04-23T08:05:43.919Z,2.65
2023-04-23T08:07:46.991Z,3.10
2023-04-23T08:08:51.034Z,2.90
2023-04-23T08:09:52.680Z,3.00
2023-04-23T08:10:57.058Z,2.90
2023-04-23T08:11:58.784Z,2.78
2023-04-23T08:14:02.323Z,3.40
2023-04-23T08:15:04.597Z,3.22
2023-04-23T08:16:12.163Z,2.70
2023-04-23T08:17:13.784Z,3.42
2023-04-23T08:19:17.155Z,3.00
2023-04-23T08:21:20.764Z,3.00
2023-04-23T08:22:22.441Z,2.88
2023-04-23T08:24:27.071Z,2.70
2023-04-23T08:25:28.660Z,2.83
2023-04-23T08:26:31.423Z,3.03
2023-04-23T08:27:33.132Z,3.00
2023-04-23T08:28:37.036Z,3.33
2023-04-23T08:29:38.646Z,2.92
2023-04-23T08:31:44.380Z,3.30
2023-04-23T08:32:49.851Z,3.03
2023-04-23T08:33:51.737Z,3.08
2023-04-23T08:35:55.048Z,3.38
2023-04-23T08:36:56.820Z,3.50
2023-04-23T08:39:00.856Z,3.40
2023-04-23T08:40:04.032Z,3.33
2023-04-23T08:41:06.623Z,3.50
2023-04-23T08:42:27.008Z,3.33
2023-04-23T08:43:37.795Z,3.40
2023-04-23T08:44:42.892Z,3.60
2023-04-23T08:45:49.614Z,3.50
2023-04-23T08:46:53.824Z,3.22
2023-04-23T08:48:02.207Z,3.67
2023-04-23T08:49:08.472Z,3.50
2023-04-23T08:50:12.622Z,3.40
2023-04-23T08:51:19.126Z,3.60
2023-04-23T08:52:24.297Z,3.20
2023-04-23T08:53:29.652Z,3.63
2023-04-23T08:54:34.732Z,2.97
2023-04-23T08:55:36.699Z,3.33
2023-04-23T08:56:39.222Z,3.75
2023-04-23T08:57:44.078Z,3.22
2023-04-23T08:58:47.018Z,3.63
2023-04-23T08:59:54.216Z,4.00
2023-04-23T09:00:58.094Z,3.35
2023-04-23T09:02:08.332Z,3.30
2023-04-23T09:03:10.653Z,3.50
2023-04-23T09:04:16.966Z,3.60
2023-04-23T09:05:18.554Z,3.30
2023-04-23T09:06:20.593Z,3.28
2023-04-23T09:07:24.610Z,3.20
2023-04-23T09:08:26.346Z,3.47
2023-04-23T09:09:29.554Z,3.38
2023-04-23T09:10:31.590Z,3.75
2023-04-23T09:11:34.617Z,3.78
2023-04-23T09:12:36.773Z,3.63
2023-04-23T09:13:41.386Z,3.40
2023-04-23T09:14:43.246Z,3.50
2023-04-23T09:15:47.711Z,3.58
2023-04-23T09:16:50.650Z,3.47
2023-04-23T09:17:52.418Z,3.40
2023-04-23T09:18:59.634Z,3.60
2023-04-23T09:20:01.527Z,3.38
2023-04-23T09:21:04.443Z,3.30
2023-04-23T09:22:07.772Z,3.60
2023-04-23T09:23:13.657Z,3.10
2023-04-23T09:24:16.331Z,3.58
2023-04-23T09:25:23.194Z,3.40
2023-04-23T09:26:24.756Z,3.53
2023-04-23T09:27:26.808Z,3.67
2023-04-23T09:28:38.173Z,3.63
2023-04-23T09:29:40.103Z,3.63
2023-04-23T09:30:46.081Z,3.50
2023-04-23T09:31:52.022Z,3.78
2023-04-23T09:32:53.960Z,3.65
2023-04-23T09:33:55.688Z,3.80
2023-04-23T09:34:57.611Z,3.55
2023-04-23T09:35:59.155Z,3.75
2023-04-23T09:37:07.875Z,3.80
2023-04-23T09:38:10.658Z,3.63
2023-04-23T09:39:15.746Z,3.53
2023-04-23T09:40:20.050Z,3.50
2023-04-23T09:41:25.828Z,3.55
2023-04-23T09:42:28.531Z,3.80
2023-04-23T09:43:35.039Z,3.35
2023-04-23T09:44:38.208Z,3.78
2023-04-23T09:45:50.043Z,3.47
2023-04-23T09:46:51.851Z,3.55
2023-04-23T09:47:55.057Z,3.25
2023-04-23T09:49:01.408Z,3.25
2023-04-23T09:50:05.757Z,2.90
2023-04-23T09:51:07.653Z,3.42
2023-04-23T09:52:11.508Z,3.60
2023-04-23T09:53:14.282Z,3.58
2023-04-23T09:54:19.116Z,3.60
2023-04-23T09:55:35.208Z,3.50
2023-04-23T09:56:36.998Z,3.53
2023-04-23T09:58:45.615Z,3.67
2023-04-23T09:59:52.941Z,3.70
2023-04-23T10:01:08.052Z,3.33
2023-04-23T10:02:11.338Z,3.60
2023-04-23T10:03:15.778Z,3.30
2023-04-23T10:04:27.430Z,3.30
2023-04-23T10:05:45.408Z,3.50
2023-04-23T10:07:13.736Z,3.38
2023-04-23T10:08:19.659Z,3.40
2023-04-23T10:09:24.512Z,3.20
2023-04-23T10:10:26.435Z,3.10
2023-04-23T10:11:28.306Z,3.17
2023-04-23T10:12:46.699Z,3.72
2023-04-23T10:13:53.657Z,3.75
2023-04-23T10:14:57.440Z,3.15
2023-04-23T10:16:13.972Z,3.30
2023-04-23T10:17:22.800Z,3.20
2023-04-23T10:18:24.790Z,3.13
2023-04-23T10:19:29.874Z,3.20
2023-04-23T10:20:31.985Z,2.83
2023-04-23T10:21:46.295Z,3.10
2023-04-23T10:22:57.491Z,3.10
2023-04-23T10:24:02.273Z,2.80
2023-04-23T10:25:11.473Z,3.17
2023-04-23T10:26:16.139Z,2.88
2023-04-23T10:27:28.542Z,2.83
2023-04-23T10:28:36.088Z,3.08
2023-04-23T10:29:41.444Z,3.42
2023-04-23T10:30:44.581Z,2.88
2023-04-23T10:31:46.448Z,3.10
2023-04-23T10:32:49.793Z,2.72
2023-04-23T10:33:59.319Z,3.00
2023-04-23T10:36:06.141Z,2.58
2023-04-23T10:37:11.403Z,2.72
2023-04-23T10:38:14.387Z,2.70
2023-04-23T10:39:24.018Z,3.10
2023-04-23T10:40:34.061Z,3.30
2023-04-23T10:41:44.018Z,3.00
2023-04-23T10:42:46.533Z,3.78
2023-04-23T10:43:48.280Z,2.72
2023-04-23T10:46:32.112Z,3.13
2023-04-23T10:47:33.845Z,3.25
2023-04-23T10:49:08.181Z,2.75
2023-04-23T10:50:24.926Z,2.60
2023-04-23T10:52:14.573Z,2.80
2023-04-23T10:52:57.650Z,3.13
2023-04-23T10:53:59.909Z,3.17
2023-04-23T10:56:07.922Z,3.08
2023-04-23T10:57:11.087Z,3.15
2023-04-23T10:58:14.807Z,3.03
2023-04-23T11:00:22.346Z,2.65
2023-04-23T11:01:25.784Z,2.72
2023-04-23T11:02:43.907Z,2.60
2023-04-23T11:03:46.002Z,2.70
2023-04-23T11:04:57.163Z,2.70
2023-04-23T11:06:03.442Z,2.63
2023-04-23T11:07:09.322Z,2.60
2023-04-23T11:08:19.401Z,2.97
2023-04-23T11:09:36.411Z,2.35
2023-04-23T11:10:57.986Z,2.70
2023-04-23T11:12:05.827Z,2.70
2023-04-23T11:13:29.593Z,2.92
2023-04-23T11:14:43.326Z,2.90
2023-04-23T11:15:46.935Z,2.40
2023-04-23T11:16:48.946Z,2.60
2023-04-23T11:17:59.435Z,2.80
2023-04-23T11:19:18.340Z,2.67
2023-04-23T11:20:23.975Z,3.08
2023-04-23T11:21:59.598Z,2.70
2023-04-23T11:23:01.323Z,2.67
2023-04-23T11:24:03.028Z,2.78
2023-04-23T11:25:08.730Z,2.53
2023-04-23T11:26:10.458Z,2.45
2023-04-23T11:28:16.240Z,2.30
2023-04-23T11:29:21.294Z,2.42
2023-04-23T11:30:24.916Z,3.05
2023-04-23T11:31:26.840Z,2.75
2023-04-23T11:32:28.626Z,2.60
2023-04-23T11:34:33.890Z,2.72
2023-04-23T11:35:41.451Z,2.50
2023-04-23T11:36:46.578Z,2.08
2023-04-23T11:37:48.829Z,2.40
2023-04-23T11:38:56.268Z,2.50
2023-04-23T11:40:08.650Z,2.67
2023-04-23T11:41:10.273Z,2.83
2023-04-23T11:43:19.540Z,2.45
2023-04-23T11:44:23.234Z,2.47
2023-04-23T11:46:28.092Z,2.83
2023-04-23T11:47:30.289Z,2.67
2023-04-23T11:48:34.080Z,2.70
2023-04-23T11:49:38.106Z,2.60
2023-04-23T11:50:41.898Z,2.65
2023-04-23T11:51:46.345Z,2.38
2023-04-23T11:52:48.173Z,2.67
2023-04-23T11:53:49.908Z,2.55
2023-04-23T11:54:51.650Z,2.40
2023-04-23T11:55:56.654Z,2.20
2023-04-23T11:56:59.298Z,2.40
2023-04-23T11:58:00.880Z,2.90
2023-04-23T11:59:05.792Z,2.42
2023-04-23T12:00:16.323Z,2.00
2023-04-23T12:01:17.960Z,2.20
2023-04-23T12:02:19.728Z,2.47
2023-04-23T12:03:27.127Z,2.60
2023-04-23T12:04:30.765Z,2.92
2023-04-23T12:05:36.659Z,2.65
2023-04-23T12:06:40.214Z,2.58
2023-04-23T12:07:41.830Z,2.42
2023-04-23T12:08:47.118Z,2.47
2023-04-23T12:09:48.737Z,2.58
2023-04-23T12:12:00.289Z,2.55
2023-04-23T12:13:04.183Z,2.53
2023-04-23T12:14:08.538Z,2.67
2023-04-23T12:15:12.709Z,2.58
2023-04-23T12:16:14.647Z,2.50
2023-04-23T12:17:16.409Z,2.97
2023-04-23T12:18:20.453Z,2.42
2023-04-23T12:19:29.466Z,2.33
2023-04-23T12:20:31.097Z,2.88
2023-04-23T12:21:34.690Z,2.38
2023-04-23T12:22:38.436Z,2.10
2023-04-23T12:23:42.106Z,2.85
2023-04-23T12:24:48.797Z,2.33
2023-04-23T12:25:54.846Z,2.78
2023-04-23T12:27:00.447Z,2.72
2023-04-23T12:28:07.411Z,2.67
2023-04-23T12:29:09.157Z,2.60
2023-04-23T12:30:11.837Z,2.60
2023-04-23T12:31:20.865Z,2.55
2023-04-23T12:32:27.064Z,2.33
2023-04-23T12:33:30.595Z,2.70
2023-04-23T12:34:32.335Z,2.50
2023-04-23T12:36:51.580Z,2.65
2023-04-23T12:37:53.144Z,2.47
2023-04-23T12:38:54.760Z,2.42
2023-04-23T12:39:59.645Z,2.60
2023-04-23T12:41:01.888Z,2.38
2023-04-23T12:42:06.696Z,2.90
2023-04-23T12:43:08.496Z,2.20
2023-04-23T12:45:14.123Z,2.55
